首页
METAR-TAF:

METAR-TAF

机场 :

布瓊布拉國際機場

布琼布拉, 布隆迪

纬度: 03-19S, 经度: 029-19E, 海拔: 782米

当前天气观测

该预报发布于8小时和7分钟前的15:00 UTC
风速10节,风向
温度 30°C
湿度 52%
气压
能见度10公里或以上
少量云层高于3000英尺

METAR: HBBA 241500Z 19010KT 9999 FEW030 30/19 NOSIG

时间: 01:07 (23:07 UTC)

预报

该预报发布于6小时和7分钟前的17:00 UTC
预报有效从24日的 18点(UTC)到 25日的 24点(UTC)
风速4节,风向
能见度10公里或以上
少量云层高于3000英尺
成为
从 25日的 08点(UTC)到 25日的 10点(UTC)
风速8节,风向,有时为18节阵风
能见度10公里或以上
少量云层高于2500英尺
散云层高于10000英尺
成为
从 25日的 21点(UTC)到 25日的 23点(UTC)
风速4节,风向
能见度10公里或以上
1500米以下无云,无积雨云

TAF: HBBA 241700Z 2418/2524 36004KT 9999 FEW030 BECMG 2508/2510 18008G18KT 9999 FEW025 SCT100 BECMG 2521/2523 36004KT CAVOK

超过4000个机场的气象观测和天气预报(METAR&TAF报告)。

可查询的气象台以黄色和红色小点在地图上表示。

将鼠标移到小点上方,可查看气象台名称。

然后点击查看天气观测和预报。

如需切换地图:点击带黑十字的绿色按钮放大地图;点击带横线的绿色按钮缩小地图;或者点击绿色箭头查看邻近地区的地图。


METAR-TAF: